sensor_id;sensor_type;location;lat;lon;timestamp;pressure;altitude;pressure_sealevel;temperature;humidity
8292;BME280;4184;42.724;23.308;2022-09-01T00:01:51;95210.13;;;20.67;64.30
8292;BME280;4184;42.724;23.308;2022-09-01T00:04:23;95205.88;;;20.66;64.37
8292;BME280;4184;42.724;23.308;2022-09-01T00:06:53;95207.66;;;20.59;64.33
8292;BME280;4184;42.724;23.308;2022-09-01T00:09:22;95204.44;;;20.57;64.49
8292;BME280;4184;42.724;23.308;2022-09-01T00:11:53;95202.81;;;20.56;64.43
8292;BME280;4184;42.724;23.308;2022-09-01T00:14:24;95198.38;;;20.50;64.53
8292;BME280;4184;42.724;23.308;2022-09-01T00:16:52;95196.75;;;20.49;64.64
8292;BME280;4184;42.724;23.308;2022-09-01T00:19:21;95196.13;;;20.47;64.55
8292;BME280;4184;42.724;23.308;2022-09-01T00:21:49;95204.00;;;20.47;64.63
8292;BME280;4184;42.724;23.308;2022-09-01T00:24:17;95189.47;;;20.45;64.70
8292;BME280;4184;42.724;23.308;2022-09-01T00:26:46;95199.16;;;20.44;64.78
8292;BME280;4184;42.724;23.308;2022-09-01T00:29:14;95202.78;;;20.43;64.84
8292;BME280;4184;42.724;23.308;2022-09-01T00:31:42;95194.91;;;20.43;64.81
8292;BME280;4184;42.724;23.308;2022-09-01T00:34:10;95196.72;;;20.42;64.70
8292;BME280;4184;42.724;23.308;2022-09-01T00:36:40;95190.84;;;20.40;64.86
8292;BME280;4184;42.724;23.308;2022-09-01T00:39:08;95199.94;;;20.38;64.84
8292;BME280;4184;42.724;23.308;2022-09-01T00:41:38;95207.19;;;20.36;64.93
8292;BME280;4184;42.724;23.308;2022-09-01T00:44:09;95211.03;;;20.33;64.88
8292;BME280;4184;42.724;23.308;2022-09-01T00:46:42;95199.91;;;20.31;64.92
8292;BME280;4184;42.724;23.308;2022-09-01T00:49:13;95215.66;;;20.31;64.65
8292;BME280;4184;42.724;23.308;2022-09-01T00:51:46;95210.81;;;20.28;64.99
8292;BME280;4184;42.724;23.308;2022-09-01T00:54:19;95224.31;;;20.25;65.00
8292;BME280;4184;42.724;23.308;2022-09-01T00:56:48;95220.28;;;20.23;64.96
8292;BME280;4184;42.724;23.308;2022-09-01T00:59:17;95219.69;;;20.21;65.09
8292;BME280;4184;42.724;23.308;2022-09-01T01:01:47;95222.31;;;20.21;64.94
8292;BME280;4184;42.724;23.308;2022-09-01T01:04:15;95225.94;;;20.20;65.11
8292;BME280;4184;42.724;23.308;2022-09-01T01:06:45;95229.78;;;20.17;64.94
8292;BME280;4184;42.724;23.308;2022-09-01T01:09:15;95225.69;;;20.14;65.17
8292;BME280;4184;42.724;23.308;2022-09-01T01:11:43;95218.81;;;20.13;65.18
8292;BME280;4184;42.724;23.308;2022-09-01T01:14:14;95224.06;;;20.13;65.05
8292;BME280;4184;42.724;23.308;2022-09-01T01:16:44;95213.97;;;20.10;65.15
8292;BME280;4184;42.724;23.308;2022-09-01T01:19:17;95213.38;;;20.08;65.10
8292;BME280;4184;42.724;23.308;2022-09-01T01:22:04;95209.75;;;20.09;65.16
8292;BME280;4184;42.724;23.308;2022-09-01T01:24:53;95203.47;;;20.10;65.11
8292;BME280;4184;42.724;23.308;2022-09-01T01:27:22;95205.31;;;20.10;65.21
8292;BME280;4184;42.724;23.308;2022-09-01T01:29:49;95210.34;;;20.05;65.22
8292;BME280;4184;42.724;23.308;2022-09-01T01:32:20;95210.94;;;20.00;65.45
8292;BME280;4184;42.724;23.308;2022-09-01T01:34:50;95217.19;;;19.99;65.44
8292;BME280;4184;42.724;23.308;2022-09-01T01:37:19;95213.94;;;19.97;65.54
8292;BME280;4184;42.724;23.308;2022-09-01T01:39:49;95215.94;;;19.95;65.50
8292;BME280;4184;42.724;23.308;2022-09-01T01:42:18;95216.34;;;19.92;65.55
8292;BME280;4184;42.724;23.308;2022-09-01T01:44:47;95214.91;;;19.90;65.57
8292;BME280;4184;42.724;23.308;2022-09-01T01:47:15;95223.78;;;19.89;65.49
8292;BME280;4184;42.724;23.308;2022-09-01T01:49:46;95228.22;;;19.88;65.52
8292;BME280;4184;42.724;23.308;2022-09-01T01:52:14;95230.25;;;19.86;65.46
8292;BME280;4184;42.724;23.308;2022-09-01T01:54:43;95233.69;;;19.87;65.45
8292;BME280;4184;42.724;23.308;2022-09-01T01:57:11;95230.66;;;19.83;65.65
8292;BME280;4184;42.724;23.308;2022-09-01T01:59:43;95236.06;;;19.81;65.60
8292;BME280;4184;42.724;23.308;2022-09-01T02:02:12;95242.50;;;19.79;65.66
8292;BME280;4184;42.724;23.308;2022-09-01T02:04:39;95242.50;;;19.79;65.70
8292;BME280;4184;42.724;23.308;2022-09-01T02:07:10;95257.44;;;19.78;65.85
8292;BME280;4184;42.724;23.308;2022-09-01T02:09:38;95255.00;;;19.77;65.93
8292;BME280;4184;42.724;23.308;2022-09-01T02:12:09;95250.78;;;19.76;66.00
8292;BME280;4184;42.724;23.308;2022-09-01T02:14:36;95248.72;;;19.71;65.91
8292;BME280;4184;42.724;23.308;2022-09-01T02:17:06;95256.19;;;19.68;66.25
8292;BME280;4184;42.724;23.308;2022-09-01T02:19:33;95252.75;;;19.67;66.37
8292;BME280;4184;42.724;23.308;2022-09-01T02:22:03;95249.31;;;19.67;66.20
8292;BME280;4184;42.724;23.308;2022-09-01T02:24:31;95248.31;;;19.68;66.36
8292;BME280;4184;42.724;23.308;2022-09-01T02:26:59;95250.94;;;19.68;66.31
8292;BME280;4184;42.724;23.308;2022-09-01T02:29:28;95256.19;;;19.68;66.37
8292;BME280;4184;42.724;23.308;2022-09-01T02:31:56;95245.69;;;19.68;66.23
8292;BME280;4184;42.724;23.308;2022-09-01T02:34:26;95247.69;;;19.66;66.25
8292;BME280;4184;42.724;23.308;2022-09-01T02:36:55;95242.81;;;19.63;66.31
8292;BME280;4184;42.724;23.308;2022-09-01T02:39:25;95242.00;;;19.62;66.61
8292;BME280;4184;42.724;23.308;2022-09-01T02:41:53;95235.75;;;19.63;66.26
8292;BME280;4184;42.724;23.308;2022-09-01T02:44:21;95233.94;;;19.64;66.22
8292;BME280;4184;42.724;23.308;2022-09-01T02:46:49;95231.97;;;19.66;66.29
8292;BME280;4184;42.724;23.308;2022-09-01T02:49:20;95229.34;;;19.66;66.16
8292;BME280;4184;42.724;23.308;2022-09-01T02:51:51;95227.09;;;19.63;66.35
8292;BME280;4184;42.724;23.308;2022-09-01T02:54:20;95229.09;;;19.61;66.53
8292;BME280;4184;42.724;23.308;2022-09-01T02:56:50;95227.69;;;19.58;66.48
8292;BME280;4184;42.724;23.308;2022-09-01T02:59:23;95226.25;;;19.56;66.49
8292;BME280;4184;42.724;23.308;2022-09-01T03:01:52;95222.00;;;19.55;66.77
8292;BME280;4184;42.724;23.308;2022-09-01T03:04:22;95221.38;;;19.52;66.54
8292;BME280;4184;42.724;23.308;2022-09-01T03:06:51;95220.56;;;19.52;66.59
8292;BME280;4184;42.724;23.308;2022-09-01T03:09:20;95226.00;;;19.50;66.63
8292;BME280;4184;42.724;23.308;2022-09-01T03:11:50;95225.56;;;19.47;66.83
8292;BME280;4184;42.724;23.308;2022-09-01T03:14:19;95236.22;;;19.45;66.76
8292;BME280;4184;42.724;23.308;2022-09-01T03:16:47;95230.00;;;19.46;66.90
8292;BME280;4184;42.724;23.308;2022-09-01T03:19:15;95226.56;;;19.46;66.87
8292;BME280;4184;42.724;23.308;2022-09-01T03:21:44;95224.75;;;19.46;66.65
8292;BME280;4184;42.724;23.308;2022-09-01T03:24:17;95228.75;;;19.42;67.15
8292;BME280;4184;42.724;23.308;2022-09-01T03:26:45;95228.53;;;19.37;66.85
8292;BME280;4184;42.724;23.308;2022-09-01T03:29:15;95232.97;;;19.37;67.25
8292;BME280;4184;42.724;23.308;2022-09-01T03:31:42;95235.41;;;19.38;67.10
8292;BME280;4184;42.724;23.308;2022-09-01T03:34:10;95247.50;;;19.39;67.24
8292;BME280;4184;42.724;23.308;2022-09-01T03:36:38;95243.84;;;19.34;67.25
8292;BME280;4184;42.724;23.308;2022-09-01T03:39:17;95246.66;;;19.32;67.39
8292;BME280;4184;42.724;23.308;2022-09-01T03:41:44;95241.41;;;19.32;67.40
8292;BME280;4184;42.724;23.308;2022-09-01T03:44:12;95243.03;;;19.33;67.57
8292;BME280;4184;42.724;23.308;2022-09-01T03:46:40;95238.59;;;19.34;67.57
8292;BME280;4184;42.724;23.308;2022-09-01T03:49:12;95246.47;;;19.34;67.46
8292;BME280;4184;42.724;23.308;2022-09-01T03:51:41;95243.03;;;19.33;67.68
8292;BME280;4184;42.724;23.308;2022-09-01T03:54:10;95245.84;;;19.32;67.49
8292;BME280;4184;42.724;23.308;2022-09-01T03:56:39;95241.41;;;19.32;67.82
8292;BME280;4184;42.724;23.308;2022-09-01T03:59:08;95241.41;;;19.32;67.47
8292;BME280;4184;42.724;23.308;2022-09-01T04:01:42;95243.03;;;19.33;67.56
8292;BME280;4184;42.724;23.308;2022-09-01T04:04:10;95244.66;;;19.34;67.73
8292;BME280;4184;42.724;23.308;2022-09-01T04:06:41;95241.84;;;19.36;67.63
8292;BME280;4184;42.724;23.308;2022-09-01T04:09:09;95247.06;;;19.36;67.86
8292;BME280;4184;42.724;23.308;2022-09-01T04:11:39;95242.66;;;19.36;67.68
8292;BME280;4184;42.724;23.308;2022-09-01T04:14:08;95242.66;;;19.36;67.85
8292;BME280;4184;42.724;23.308;2022-09-01T04:16:36;95248.28;;;19.33;67.85
8292;BME280;4184;42.724;23.308;2022-09-01T04:19:24;95245.00;;;19.31;68.35
8292;BME280;4184;42.724;23.308;2022-09-01T04:21:54;95236.97;;;19.33;67.96
8292;BME280;4184;42.724;23.308;2022-09-01T04:24:23;95239.41;;;19.34;67.70
8292;BME280;4184;42.724;23.308;2022-09-01T04:26:56;95246.28;;;19.35;68.15
8292;BME280;4184;42.724;23.308;2022-09-01T04:29:24;95235.78;;;19.35;67.74
8292;BME280;4184;42.724;23.308;2022-09-01T04:31:53;95237.41;;;19.36;67.83
8292;BME280;4184;42.724;23.308;2022-09-01T04:34:22;95232.78;;;19.38;67.84
8292;BME280;4184;42.724;23.308;2022-09-01T04:36:50;95231.78;;;19.39;67.92
8292;BME280;4184;42.724;23.308;2022-09-01T04:39:21;95237.00;;;19.39;67.99
8292;BME280;4184;42.724;23.308;2022-09-01T04:41:49;95233.38;;;19.40;67.83
8292;BME280;4184;42.724;23.308;2022-09-01T04:44:18;95243.88;;;19.40;68.09
8292;BME280;4184;42.724;23.308;2022-09-01T04:46:46;95241.06;;;19.42;67.94
8292;BME280;4184;42.724;23.308;2022-09-01T04:49:18;95241.47;;;19.45;67.93
8292;BME280;4184;42.724;23.308;2022-09-01T04:51:49;95242.09;;;19.47;67.96
8292;BME280;4184;42.724;23.308;2022-09-01T04:54:17;95242.75;;;19.49;67.66
8292;BME280;4184;42.724;23.308;2022-09-01T04:56:48;95237.09;;;19.52;67.40
8292;BME280;4184;42.724;23.308;2022-09-01T04:59:19;95235.13;;;19.55;67.58
8292;BME280;4184;42.724;23.308;2022-09-01T05:01:48;95232.50;;;19.55;67.34
8292;BME280;4184;42.724;23.308;2022-09-01T05:04:17;95242.59;;;19.58;67.34
8292;BME280;4184;42.724;23.308;2022-09-01T05:06:48;95235.97;;;19.62;67.24
8292;BME280;4184;42.724;23.308;2022-09-01T05:09:17;95231.56;;;19.69;67.13
8292;BME280;4184;42.724;23.308;2022-09-01T05:11:44;95236.03;;;19.75;67.02
8292;BME280;4184;42.724;23.308;2022-09-01T05:14:13;95240.69;;;19.79;67.04
8292;BME280;4184;42.724;23.308;2022-09-01T05:16:45;95228.03;;;19.83;66.57
8292;BME280;4184;42.724;23.308;2022-09-01T05:19:13;95223.59;;;19.90;66.40
8292;BME280;4184;42.724;23.308;2022-09-01T05:21:43;95230.31;;;19.99;66.17
8292;BME280;4184;42.724;23.308;2022-09-01T05:24:12;95238.41;;;20.04;66.15
8292;BME280;4184;42.724;23.308;2022-09-01T05:26:42;95237.81;;;20.09;65.85
8292;BME280;4184;42.724;23.308;2022-09-01T05:29:12;95236.59;;;20.11;65.97
8292;BME280;4184;42.724;23.308;2022-09-01T05:31:45;95230.78;;;20.16;65.68
8292;BME280;4184;42.724;23.308;2022-09-01T05:34:13;95227.75;;;20.26;65.52
8292;BME280;4184;42.724;23.308;2022-09-01T05:36:45;95230.41;;;20.32;65.40
8292;BME280;4184;42.724;23.308;2022-09-01T05:39:16;95224.97;;;20.40;64.95
8292;BME280;4184;42.724;23.308;2022-09-01T05:41:44;95228.66;;;20.46;64.95
8292;BME280;4184;42.724;23.308;2022-09-01T05:44:13;95240.00;;;20.53;65.04
8292;BME280;4184;42.724;23.308;2022-09-01T05:46:41;95236.34;;;20.54;64.86
8292;BME280;4184;42.724;23.308;2022-09-01T05:49:11;95231.91;;;20.55;64.83
8292;BME280;4184;42.724;23.308;2022-09-01T05:51:42;95228.28;;;20.56;64.67
8292;BME280;4184;42.724;23.308;2022-09-01T05:54:15;95235.94;;;20.57;64.79
8292;BME280;4184;42.724;23.308;2022-09-01T05:56:44;95235.75;;;20.59;64.69
8292;BME280;4184;42.724;23.308;2022-09-01T05:59:12;95240.00;;;20.60;64.78
8292;BME280;4184;42.724;23.308;2022-09-01T06:01:40;95238.16;;;20.60;64.91
8292;BME280;4184;42.724;23.308;2022-09-01T06:04:08;95235.53;;;20.60;64.72
8292;BME280;4184;42.724;23.308;2022-09-01T06:06:41;95235.53;;;20.60;64.64
8292;BME280;4184;42.724;23.308;2022-09-01T06:09:15;95223.03;;;20.62;64.48
8292;BME280;4184;42.724;23.308;2022-09-01T06:11:43;95224.25;;;20.66;64.59
8292;BME280;4184;42.724;23.308;2022-09-01T06:14:12;95227.69;;;20.73;64.47
8292;BME280;4184;42.724;23.308;2022-09-01T06:16:40;95222.63;;;20.79;64.18
8292;BME280;4184;42.724;23.308;2022-09-01T06:19:08;95229.91;;;20.77;64.44
8292;BME280;4184;42.724;23.308;2022-09-01T06:21:39;95223.03;;;20.69;64.63
8292;BME280;4184;42.724;23.308;2022-09-01T06:24:07;95220.00;;;20.65;64.84
8292;BME280;4184;42.724;23.308;2022-09-01T06:26:36;95226.25;;;20.64;64.81
8292;BME280;4184;42.724;23.308;2022-09-01T06:29:06;95222.25;;;20.68;64.82
8292;BME280;4184;42.724;23.308;2022-09-01T06:31:36;95220.81;;;20.72;64.50
8292;BME280;4184;42.724;23.308;2022-09-01T06:34:05;95226.28;;;20.78;64.48
8292;BME280;4184;42.724;23.308;2022-09-01T06:36:35;95217.97;;;20.81;64.25
8292;BME280;4184;42.724;23.308;2022-09-01T06:39:07;95221.25;;;20.89;64.20
8292;BME280;4184;42.724;23.308;2022-09-01T06:41:39;95216.97;;;20.95;63.93
8292;BME280;4184;42.724;23.308;2022-09-01T06:44:06;95221.03;;;21.04;64.03
8292;BME280;4184;42.724;23.308;2022-09-01T06:46:35;95216.56;;;21.11;63.79
8292;BME280;4184;42.724;23.308;2022-09-01T06:49:03;95214.97;;;21.23;63.57
8292;BME280;4184;42.724;23.308;2022-09-01T06:51:30;95221.03;;;21.37;63.00
8292;BME280;4184;42.724;23.308;2022-09-01T06:53:59;95217.78;;;21.55;62.87
8292;BME280;4184;42.724;23.308;2022-09-01T06:56:30;95209.59;;;21.76;62.41
8292;BME280;4184;42.724;23.308;2022-09-01T06:59:00;95205.47;;;22.07;61.57
8292;BME280;4184;42.724;23.308;2022-09-01T07:01:31;95217.06;;;22.37;60.95
8292;BME280;4184;42.724;23.308;2022-09-01T07:03:59;95210.22;;;22.68;60.55
8292;BME280;4184;42.724;23.308;2022-09-01T07:06:27;95216.53;;;22.92;60.10
8292;BME280;4184;42.724;23.308;2022-09-01T07:08:57;95211.78;;;23.00;59.40
8292;BME280;4184;42.724;23.308;2022-09-01T07:11:29;95203.19;;;23.11;59.56
8292;BME280;4184;42.724;23.308;2022-09-01T07:14:00;95205.94;;;23.23;58.98
8292;BME280;4184;42.724;23.308;2022-09-01T07:16:30;95204.25;;;23.29;59.02
8292;BME280;4184;42.724;23.308;2022-09-01T07:19:01;95210.69;;;23.33;58.66
8292;BME280;4184;42.724;23.308;2022-09-01T07:21:30;95205.81;;;23.36;58.92
8292;BME280;4184;42.724;23.308;2022-09-01T07:23:58;95214.91;;;23.40;58.54
8292;BME280;4184;42.724;23.308;2022-09-01T07:26:31;95202.44;;;23.48;58.80
8292;BME280;4184;42.724;23.308;2022-09-01T07:28:59;95206.47;;;23.50;58.57
8292;BME280;4184;42.724;23.308;2022-09-01T07:31:30;95204.00;;;23.55;58.11
8292;BME280;4184;42.724;23.308;2022-09-01T07:34:01;95209.88;;;24.12;57.17
8292;BME280;4184;42.724;23.308;2022-09-01T07:36:31;95198.03;;;25.05;55.63
8292;BME280;4184;42.724;23.308;2022-09-01T07:38:59;95200.06;;;25.96;53.52
8292;BME280;4184;42.724;23.308;2022-09-01T07:41:27;95196.47;;;26.71;51.94
8292;BME280;4184;42.724;23.308;2022-09-01T07:43:56;95191.56;;;27.47;50.28
8292;BME280;4184;42.724;23.308;2022-09-01T07:46:26;95188.72;;;28.14;48.71
8292;BME280;4184;42.724;23.308;2022-09-01T07:48:54;95183.41;;;28.63;48.18
8292;BME280;4184;42.724;23.308;2022-09-01T07:51:23;95191.56;;;29.10;46.85
8292;BME280;4184;42.724;23.308;2022-09-01T07:53:51;95198.81;;;29.52;46.17
8292;BME280;4184;42.724;23.308;2022-09-01T07:56:21;95195.53;;;29.87;45.42
8292;BME280;4184;42.724;23.308;2022-09-01T07:58:50;95202.69;;;30.39;44.54
8292;BME280;4184;42.724;23.308;2022-09-01T08:01:21;95192.66;;;30.81;43.76
8292;BME280;4184;42.724;23.308;2022-09-01T08:03:51;95192.44;;;31.08;43.48
8292;BME280;4184;42.724;23.308;2022-09-01T08:06:21;95190.56;;;31.45;42.60
8292;BME280;4184;42.724;23.308;2022-09-01T08:08:50;95186.22;;;31.79;41.81
8292;BME280;4184;42.724;23.308;2022-09-01T08:11:21;95186.19;;;31.94;41.68
8292;BME280;4184;42.724;23.308;2022-09-01T08:13:51;95185.53;;;32.18;41.68
8292;BME280;4184;42.724;23.308;2022-09-01T08:16:20;95180.66;;;32.35;41.12
8292;BME280;4184;42.724;23.308;2022-09-01T08:18:48;95178.38;;;32.57;40.93
8292;BME280;4184;42.724;23.308;2022-09-01T08:21:18;95185.22;;;32.74;40.21
8292;BME280;4184;42.724;23.308;2022-09-01T08:23:47;95182.53;;;32.84;39.75
8292;BME280;4184;42.724;23.308;2022-09-01T08:26:16;95182.13;;;33.01;39.51
8292;BME280;4184;42.724;23.308;2022-09-01T08:28:44;95181.44;;;33.19;39.87
8292;BME280;4184;42.724;23.308;2022-09-01T08:31:13;95182.34;;;33.43;39.50
8292;BME280;4184;42.724;23.308;2022-09-01T08:33:45;95179.66;;;33.67;38.51
8292;BME280;4184;42.724;23.308;2022-09-01T08:36:15;95175.50;;;33.80;38.96
8292;BME280;4184;42.724;23.308;2022-09-01T08:38:42;95171.81;;;34.00;38.46
8292;BME280;4184;42.724;23.308;2022-09-01T08:41:15;95165.91;;;34.22;37.90
8292;BME280;4184;42.724;23.308;2022-09-01T08:43:54;95168.56;;;34.46;37.62
8292;BME280;4184;42.724;23.308;2022-09-01T08:46:25;95164.63;;;34.38;37.23
8292;BME280;4184;42.724;23.308;2022-09-01T08:48:57;95164.97;;;34.31;37.85
8292;BME280;4184;42.724;23.308;2022-09-01T08:51:29;95159.44;;;34.47;37.36
8292;BME280;4184;42.724;23.308;2022-09-01T08:54:02;95146.19;;;34.69;36.91
8292;BME280;4184;42.724;23.308;2022-09-01T08:56:33;95144.47;;;34.78;36.46
8292;BME280;4184;42.724;23.308;2022-09-01T08:59:03;95138.34;;;34.91;36.54
8292;BME280;4184;42.724;23.308;2022-09-01T09:01:38;95135.63;;;35.10;36.21
8292;BME280;4184;42.724;23.308;2022-09-01T09:04:32;95135.06;;;35.27;35.80
8292;BME280;4184;42.724;23.308;2022-09-01T09:07:08;95125.16;;;35.41;35.28
8292;BME280;4184;42.724;23.308;2022-09-01T09:09:40;95124.88;;;35.56;35.16
8292;BME280;4184;42.724;23.308;2022-09-01T09:12:34;95122.28;;;35.65;34.84
8292;BME280;4184;42.724;23.308;2022-09-01T09:15:18;95125.97;;;35.69;34.46
8292;BME280;4184;42.724;23.308;2022-09-01T09:17:51;95131.53;;;35.73;34.33
8292;BME280;4184;42.724;23.308;2022-09-01T09:20:26;95123.97;;;35.75;34.08
8292;BME280;4184;42.724;23.308;2022-09-01T09:22:54;95123.88;;;35.80;34.19
8292;BME280;4184;42.724;23.308;2022-09-01T09:25:23;95120.50;;;35.88;34.11
8292;BME280;4184;42.724;23.308;2022-09-01T09:27:52;95113.44;;;35.92;34.09
8292;BME280;4184;42.724;23.308;2022-09-01T09:30:22;95112.03;;;35.81;34.16
8292;BME280;4184;42.724;23.308;2022-09-01T09:32:52;95112.81;;;35.54;34.42
8292;BME280;4184;42.724;23.308;2022-09-01T09:35:26;95106.81;;;35.43;34.63
8292;BME280;4184;42.724;23.308;2022-09-01T09:37:55;95105.84;;;35.39;34.61
8292;BME280;4184;42.724;23.308;2022-09-01T09:40:55;95100.44;;;35.39;34.77
8292;BME280;4184;42.724;23.308;2022-09-01T09:43:26;95094.66;;;35.32;34.53
8292;BME280;4184;42.724;23.308;2022-09-01T09:46:22;95094.84;;;35.22;35.19
8292;BME280;4184;42.724;23.308;2022-09-01T09:49:11;95092.13;;;35.08;35.10
8292;BME280;4184;42.724;23.308;2022-09-01T09:51:42;95091.38;;;34.89;35.30
8292;BME280;4184;42.724;23.308;2022-09-01T09:54:12;95089.16;;;34.77;35.16
8292;BME280;4184;42.724;23.308;2022-09-01T09:56:41;95089.72;;;34.74;35.37
8292;BME280;4184;42.724;23.308;2022-09-01T09:59:27;95081.16;;;34.72;35.00
8292;BME280;4184;42.724;23.308;2022-09-01T10:01:58;95080.69;;;34.51;35.67
8292;BME280;4184;42.724;23.308;2022-09-01T10:04:35;95078.94;;;34.23;35.82
8292;BME280;4184;42.724;23.308;2022-09-01T10:07:26;95085.47;;;33.98;35.92
8292;BME280;4184;42.724;23.308;2022-09-01T10:09:56;95082.72;;;33.79;36.51
8292;BME280;4184;42.724;23.308;2022-09-01T10:12:26;95085.19;;;33.52;36.99
8292;BME280;4184;42.724;23.308;2022-09-01T10:14:56;95080.94;;;33.21;36.85
8292;BME280;4184;42.724;23.308;2022-09-01T10:17:29;95079.22;;;32.73;38.06
8292;BME280;4184;42.724;23.308;2022-09-01T10:20:00;95084.44;;;32.15;38.25
8292;BME280;4184;42.724;23.308;2022-09-01T10:22:33;95072.38;;;31.58;39.28
8292;BME280;4184;42.724;23.308;2022-09-01T10:25:01;95070.09;;;31.21;39.88
8292;BME280;4184;42.724;23.308;2022-09-01T10:27:32;95070.13;;;30.90;40.13
8292;BME280;4184;42.724;23.308;2022-09-01T10:30:05;95076.03;;;30.62;40.81
8292;BME280;4184;42.724;23.308;2022-09-01T10:32:37;95054.63;;;30.36;40.81
8292;BME280;4184;42.724;23.308;2022-09-01T10:35:07;95059.16;;;30.15;41.72
8292;BME280;4184;42.724;23.308;2022-09-01T10:37:39;95064.69;;;29.99;41.58
8292;BME280;4184;42.724;23.308;2022-09-01T10:40:13;95068.13;;;29.84;41.92
8292;BME280;4184;42.724;23.308;2022-09-01T10:42:44;95055.00;;;29.72;41.99
8292;BME280;4184;42.724;23.308;2022-09-01T10:45:29;95059.53;;;29.61;42.35
8292;BME280;4184;42.724;23.308;2022-09-01T10:48:30;95062.69;;;29.53;43.16
8292;BME280;4184;42.724;23.308;2022-09-01T10:54:05;95054.94;;;29.04;43.08
8292;BME280;4184;42.724;23.308;2022-09-01T10:56:38;95052.78;;;28.96;43.10
8292;BME280;4184;42.724;23.308;2022-09-01T10:59:27;95046.66;;;28.91;43.31
8292;BME280;4184;42.724;23.308;2022-09-01T11:02:11;95044.16;;;28.84;43.56
8292;BME280;4184;42.724;23.308;2022-09-01T11:05:13;95051.06;;;28.80;44.04
8292;BME280;4184;42.724;23.308;2022-09-01T11:07:41;95044.13;;;28.74;43.76
8292;BME280;4184;42.724;23.308;2022-09-01T11:10:23;95043.53;;;28.72;43.95
8292;BME280;4184;42.724;23.308;2022-09-01T11:13:10;95024.44;;;28.75;44.02
8292;BME280;4184;42.724;23.308;2022-09-01T11:15:44;95028.44;;;28.83;43.96
8292;BME280;4184;42.724;23.308;2022-09-01T11:18:15;95027.22;;;28.90;43.70
8292;BME280;4184;42.724;23.308;2022-09-01T11:20:45;95026.44;;;28.95;43.79
8292;BME280;4184;42.724;23.308;2022-09-01T11:23:22;95022.72;;;29.01;43.52
8292;BME280;4184;42.724;23.308;2022-09-01T11:25:53;95024.59;;;29.05;43.16
8292;BME280;4184;42.724;23.308;2022-09-01T11:28:44;95019.59;;;29.09;43.66
8292;BME280;4184;42.724;23.308;2022-09-01T11:31:31;95018.28;;;29.12;43.41
8292;BME280;4184;42.724;23.308;2022-09-01T11:34:17;95009.16;;;29.02;43.02
8292;BME280;4184;42.724;23.308;2022-09-01T11:39:36;95002.69;;;28.88;42.99
8292;BME280;4184;42.724;23.308;2022-09-01T11:42:10;95000.03;;;28.88;43.15
8292;BME280;4184;42.724;23.308;2022-09-01T11:44:43;94997.41;;;28.93;43.69
8292;BME280;4184;42.724;23.308;2022-09-01T11:47:16;94984.66;;;29.00;43.45
8292;BME280;4184;42.724;23.308;2022-09-01T11:49:53;94976.94;;;28.99;42.99
8292;BME280;4184;42.724;23.308;2022-09-01T11:52:24;94974.53;;;28.97;43.45
8292;BME280;4184;42.724;23.308;2022-09-01T11:54:52;94975.06;;;28.94;43.58
8292;BME280;4184;42.724;23.308;2022-09-01T11:57:28;94977.19;;;28.92;43.19
8292;BME280;4184;42.724;23.308;2022-09-01T11:59:57;94980.91;;;28.91;43.63
8292;BME280;4184;42.724;23.308;2022-09-01T12:02:26;94977.72;;;28.89;43.06
8292;BME280;4184;42.724;23.308;2022-09-01T12:04:57;94971.78;;;28.82;43.70
8292;BME280;4184;42.724;23.308;2022-09-01T12:07:37;94969.88;;;28.77;43.44
8292;BME280;4184;42.724;23.308;2022-09-01T12:10:14;94968.56;;;28.75;43.96
8292;BME280;4184;42.724;23.308;2022-09-01T12:12:45;94969.63;;;28.74;44.01
8292;BME280;4184;42.724;23.308;2022-09-01T12:15:19;94967.13;;;28.62;43.31
8292;BME280;4184;42.724;23.308;2022-09-01T12:17:47;94967.88;;;28.53;43.47
8292;BME280;4184;42.724;23.308;2022-09-01T12:20:24;94969.44;;;28.49;44.01
8292;BME280;4184;42.724;23.308;2022-09-01T12:22:53;94965.69;;;28.44;43.47
8292;BME280;4184;42.724;23.308;2022-09-01T12:25:23;94964.03;;;28.33;43.87
8292;BME280;4184;42.724;23.308;2022-09-01T12:27:53;94965.03;;;28.27;43.74
8292;BME280;4184;42.724;23.308;2022-09-01T12:30:22;94957.63;;;28.29;43.85
8292;BME280;4184;42.724;23.308;2022-09-01T12:32:50;94957.91;;;28.33;43.80
8292;BME280;4184;42.724;23.308;2022-09-01T12:35:22;94955.84;;;28.40;43.79
8292;BME280;4184;42.724;23.308;2022-09-01T12:37:49;94958.25;;;28.46;44.17
8292;BME280;4184;42.724;23.308;2022-09-01T12:40:23;94954.53;;;28.48;43.65
8292;BME280;4184;42.724;23.308;2022-09-01T12:42:53;94957.19;;;28.42;43.98
8292;BME280;4184;42.724;23.308;2022-09-01T12:45:38;94951.88;;;28.42;44.43
8292;BME280;4184;42.724;23.308;2022-09-01T12:48:21;94960.38;;;28.44;43.95
8292;BME280;4184;42.724;23.308;2022-09-01T12:50:51;94958.78;;;28.43;44.23
8292;BME280;4184;42.724;23.308;2022-09-01T12:53:30;94956.66;;;28.45;44.30
8292;BME280;4184;42.724;23.308;2022-09-01T12:56:17;94955.69;;;28.57;43.96
8292;BME280;4184;42.724;23.308;2022-09-01T12:58:50;94959.97;;;28.68;44.26
8292;BME280;4184;42.724;23.308;2022-09-01T13:01:31;94942.75;;;28.75;43.56
8292;BME280;4184;42.724;23.308;2022-09-01T13:04:13;94949.97;;;28.85;43.99
8292;BME280;4184;42.724;23.308;2022-09-01T13:06:40;94946.56;;;28.90;43.51
8292;BME280;4184;42.724;23.308;2022-09-01T13:09:08;94938.81;;;28.88;43.97
8292;BME280;4184;42.724;23.308;2022-09-01T13:11:35;94937.72;;;28.84;43.64
8292;BME280;4184;42.724;23.308;2022-09-01T13:14:04;94940.91;;;28.81;43.89
8292;BME280;4184;42.724;23.308;2022-09-01T13:16:33;94938.47;;;28.74;44.30
8292;BME280;4184;42.724;23.308;2022-09-01T13:19:02;94934.97;;;28.69;44.31
8292;BME280;4184;42.724;23.308;2022-09-01T13:21:32;94925.94;;;28.70;44.64
8292;BME280;4184;42.724;23.308;2022-09-01T13:24:01;94929.66;;;28.69;44.64
8292;BME280;4184;42.724;23.308;2022-09-01T13:26:30;94929.38;;;28.65;44.67
8292;BME280;4184;42.724;23.308;2022-09-01T13:28:58;94922.69;;;28.58;44.46
8292;BME280;4184;42.724;23.308;2022-09-01T13:31:27;94930.13;;;28.56;44.88
8292;BME280;4184;42.724;23.308;2022-09-01T13:33:57;94923.75;;;28.57;44.41
8292;BME280;4184;42.724;23.308;2022-09-01T13:36:24;94929.63;;;28.59;44.40
8292;BME280;4184;42.724;23.308;2022-09-01T13:38:52;94932.03;;;28.60;45.05